createdAt,value
2022-12-25T00:02:04.841Z,40.87
2022-12-25T00:04:32.744Z,44.08
2022-12-25T00:07:01.088Z,48.65
2022-12-25T00:09:29.076Z,34.47
2022-12-25T00:11:56.867Z,40.55
2022-12-25T00:14:24.880Z,34.37
2022-12-25T00:16:52.652Z,38.10
2022-12-25T00:19:22.343Z,38.65
2022-12-25T00:21:50.180Z,39.72
2022-12-25T00:24:18.133Z,36.50
2022-12-25T00:26:46.050Z,41.87
2022-12-25T00:29:14.737Z,42.40
2022-12-25T00:31:42.596Z,40.15
2022-12-25T00:34:10.476Z,35.33
2022-12-25T00:36:42.036Z,26.58
2022-12-25T00:39:10.879Z,39.40
2022-12-25T00:41:56.361Z,40.65
2022-12-25T00:44:24.418Z,36.70
2022-12-25T00:46:52.389Z,37.53
2022-12-25T00:49:22.743Z,39.10
2022-12-25T00:51:52.382Z,47.13
2022-12-25T00:54:20.952Z,34.58
2022-12-25T00:56:48.966Z,41.88
2022-12-25T00:59:16.996Z,39.80
2022-12-25T01:01:45.342Z,32.40
2022-12-25T01:04:14.020Z,39.60
2022-12-25T01:06:42.447Z,45.08
2022-12-25T01:09:37.620Z,41.00
2022-12-25T01:12:05.587Z,38.58
2022-12-25T01:14:33.460Z,40.08
2022-12-25T01:17:01.222Z,41.03
2022-12-25T01:19:29.076Z,46.50
2022-12-25T01:21:56.898Z,35.22
2022-12-25T01:24:26.043Z,43.53
2022-12-25T01:26:55.365Z,37.40
2022-12-25T01:29:23.208Z,43.83
2022-12-25T01:31:51.212Z,40.45
2022-12-25T01:34:19.177Z,45.83
2022-12-25T01:36:47.004Z,42.47
2022-12-25T01:39:14.770Z,44.85
2022-12-25T01:41:44.046Z,47.90
2022-12-25T01:44:47.364Z,39.13
2022-12-25T01:47:16.958Z,39.67
2022-12-25T01:49:49.076Z,35.38
2022-12-25T01:52:23.874Z,47.33
2022-12-25T01:54:56.117Z,38.57
2022-12-25T01:57:29.742Z,43.65
2022-12-25T01:59:59.899Z,41.95
2022-12-25T02:02:28.823Z,42.05
2022-12-25T02:05:00.981Z,38.28
2022-12-25T02:07:30.885Z,42.33
2022-12-25T02:09:58.746Z,36.60
2022-12-25T02:12:29.919Z,39.42
2022-12-25T02:15:05.332Z,43.33
2022-12-25T02:17:38.195Z,41.20
2022-12-25T02:20:42.625Z,40.90
2022-12-25T02:23:43.326Z,35.78
2022-12-25T02:26:24.711Z,38.15
2022-12-25T02:28:58.952Z,36.90
2022-12-25T02:31:33.783Z,39.92
2022-12-25T02:34:08.963Z,40.47
2022-12-25T02:36:42.500Z,39.60
2022-12-25T02:39:37.399Z,38.38
2022-12-25T02:42:09.249Z,43.33
2022-12-25T02:45:02.783Z,38.90
2022-12-25T02:47:49.667Z,37.93
2022-12-25T02:50:35.353Z,42.83
2022-12-25T02:53:22.340Z,35.45
2022-12-25T02:56:09.594Z,39.47
2022-12-25T02:58:57.744Z,38.97
2022-12-25T03:01:48.927Z,34.83
2022-12-25T03:04:39.799Z,42.08
2022-12-25T03:07:10.778Z,46.08
2022-12-25T03:10:00.189Z,38.55
2022-12-25T03:12:39.610Z,35.60
2022-12-25T03:15:27.460Z,41.13
2022-12-25T03:18:00.108Z,34.97
2022-12-25T03:20:45.984Z,41.83
2022-12-25T03:23:33.817Z,39.72
2022-12-25T03:26:19.292Z,42.72
2022-12-25T03:28:47.152Z,37.10
2022-12-25T03:31:17.317Z,35.03
2022-12-25T03:34:17.249Z,44.28
2022-12-25T03:36:58.239Z,38.17
2022-12-25T03:39:53.077Z,40.03
2022-12-25T03:42:46.892Z,37.93
2022-12-25T03:45:37.352Z,39.90
2022-12-25T03:48:24.680Z,40.83
2022-12-25T03:51:15.941Z,37.92
2022-12-25T03:54:05.697Z,42.85
2022-12-25T03:56:52.662Z,39.47
2022-12-25T03:59:39.619Z,36.70
2022-12-25T04:02:25.486Z,40.30
2022-12-25T04:05:16.146Z,36.55
2022-12-25T04:08:02.949Z,40.90
2022-12-25T04:10:48.010Z,36.37
2022-12-25T04:13:33.855Z,35.97
2022-12-25T04:16:19.154Z,37.00
2022-12-25T04:19:05.199Z,40.13
2022-12-25T04:21:50.366Z,43.65
2022-12-25T04:24:36.978Z,42.37
2022-12-25T04:27:34.251Z,41.85
2022-12-25T04:30:19.739Z,40.45
2022-12-25T04:33:05.319Z,45.42
2022-12-25T04:35:56.249Z,46.05
2022-12-25T04:38:24.547Z,36.03
2022-12-25T04:40:53.717Z,34.10
2022-12-25T04:43:24.602Z,43.67
2022-12-25T04:45:56.491Z,42.63
2022-12-25T04:48:24.803Z,37.63
2022-12-25T04:50:52.778Z,46.73
2022-12-25T04:53:20.658Z,43.00
2022-12-25T04:55:48.503Z,38.92
2022-12-25T04:58:17.749Z,40.10
2022-12-25T05:00:45.604Z,38.05
2022-12-25T05:03:13.555Z,43.40
2022-12-25T05:05:41.672Z,42.53
2022-12-25T05:08:09.650Z,42.78
2022-12-25T05:10:41.069Z,45.30
2022-12-25T05:13:09.153Z,40.00
2022-12-25T05:15:40.754Z,47.67
2022-12-25T05:18:08.780Z,59.30
2022-12-25T05:20:40.284Z,49.40
2022-12-25T05:23:08.927Z,46.95
2022-12-25T05:25:40.365Z,43.53
2022-12-25T05:28:08.968Z,47.57
2022-12-25T05:30:38.237Z,45.70
2022-12-25T05:33:06.641Z,43.95
2022-12-25T05:35:34.450Z,42.42
2022-12-25T05:38:02.325Z,37.90
2022-12-25T05:40:30.696Z,42.13
2022-12-25T05:42:58.604Z,46.25
2022-12-25T05:45:26.787Z,42.72
2022-12-25T05:47:56.269Z,39.58
2022-12-25T05:50:24.046Z,48.17
2022-12-25T05:53:08.268Z,40.17
2022-12-25T05:55:36.750Z,46.90
2022-12-25T05:58:05.225Z,44.53
2022-12-25T06:00:33.815Z,44.03
2022-12-25T06:03:03.060Z,39.95
2022-12-25T06:05:31.546Z,44.30
2022-12-25T06:07:59.570Z,43.15
2022-12-25T06:10:27.405Z,42.17
2022-12-25T06:12:55.952Z,49.58
2022-12-25T06:15:23.852Z,46.58
2022-12-25T06:17:51.748Z,48.07
2022-12-25T06:20:21.016Z,47.25
2022-12-25T06:22:49.056Z,54.78
2022-12-25T06:25:17.304Z,48.22
2022-12-25T06:27:45.178Z,53.50
2022-12-25T06:30:13.403Z,46.97
2022-12-25T06:32:56.551Z,43.47
2022-12-25T06:35:24.478Z,43.00
2022-12-25T06:37:52.479Z,47.33
2022-12-25T06:40:20.537Z,50.13
2022-12-25T06:42:48.365Z,44.13
2022-12-25T06:45:16.265Z,46.10
2022-12-25T06:47:44.177Z,42.72
2022-12-25T06:50:13.604Z,40.88
2022-12-25T06:52:41.513Z,42.22
2022-12-25T06:55:10.229Z,40.00
2022-12-25T06:57:38.200Z,45.73
2022-12-25T07:00:07.845Z,49.65
2022-12-25T07:02:38.504Z,46.63
2022-12-25T07:05:07.464Z,45.20
2022-12-25T07:07:36.863Z,44.20
2022-12-25T07:10:05.134Z,47.33
2022-12-25T07:12:33.025Z,49.78
2022-12-25T07:15:01.142Z,43.20
2022-12-25T07:17:29.122Z,42.28
2022-12-25T07:19:57.270Z,45.80
2022-12-25T07:22:25.201Z,42.57
2022-12-25T07:24:54.901Z,45.42
2022-12-25T07:27:23.006Z,39.47
2022-12-25T07:29:50.895Z,45.67
2022-12-25T07:32:19.233Z,39.88
2022-12-25T07:34:47.091Z,46.77
2022-12-25T07:37:15.039Z,38.42
2022-12-25T07:39:43.156Z,43.65
2022-12-25T07:42:13.501Z,38.50
2022-12-25T07:44:44.329Z,39.72
2022-12-25T07:47:12.213Z,41.93
2022-12-25T07:49:40.171Z,37.90
2022-12-25T07:52:08.165Z,34.97
2022-12-25T07:54:36.014Z,37.53
2022-12-25T07:57:03.854Z,39.75
2022-12-25T07:59:33.303Z,42.07
2022-12-25T08:02:01.384Z,41.70
2022-12-25T08:04:29.403Z,39.05
2022-12-25T08:06:57.233Z,38.08
2022-12-25T08:09:25.220Z,36.88
2022-12-25T08:11:53.422Z,39.43
2022-12-25T08:14:21.373Z,37.90
2022-12-25T08:16:50.825Z,40.28
2022-12-25T08:19:19.039Z,37.88
2022-12-25T08:21:46.974Z,38.03
2022-12-25T08:24:15.034Z,37.83
2022-12-25T08:26:43.051Z,44.00
2022-12-25T08:29:10.776Z,41.85
2022-12-25T08:31:45.781Z,39.25
2022-12-25T08:34:15.747Z,47.28
2022-12-25T08:36:43.623Z,39.47
2022-12-25T08:39:11.690Z,44.80
2022-12-25T08:41:39.536Z,41.78
2022-12-25T08:44:07.806Z,46.65
2022-12-25T08:46:39.793Z,46.38
2022-12-25T08:49:07.871Z,43.70
2022-12-25T08:51:37.671Z,43.25
2022-12-25T08:54:05.949Z,47.78
2022-12-25T08:56:33.967Z,42.00
2022-12-25T08:59:01.912Z,42.25
2022-12-25T09:01:30.095Z,40.03
2022-12-25T09:03:58.544Z,41.55
2022-12-25T09:06:26.445Z,48.47
2022-12-25T09:08:57.672Z,44.65
2022-12-25T09:11:25.521Z,47.88
2022-12-25T09:13:53.587Z,36.83
2022-12-25T09:16:23.485Z,35.42
2022-12-25T09:18:54.861Z,40.67
2022-12-25T09:21:22.996Z,35.83
2022-12-25T09:23:53.689Z,39.35
2022-12-25T09:26:22.850Z,30.60
2022-12-25T09:28:52.583Z,32.65
2022-12-25T09:31:21.853Z,33.38
2022-12-25T09:33:50.151Z,33.00
2022-12-25T09:36:18.228Z,31.30
2022-12-25T09:38:46.048Z,30.47
2022-12-25T09:41:18.206Z,29.48
2022-12-25T09:43:52.453Z,33.05
2022-12-25T09:46:27.080Z,31.58
2022-12-25T09:49:03.998Z,35.55
2022-12-25T09:51:36.417Z,30.70
2022-12-25T09:54:11.751Z,29.25
2022-12-25T09:56:40.365Z,29.13
2022-12-25T09:59:19.447Z,28.52
2022-12-25T10:01:59.937Z,29.70
2022-12-25T10:04:46.963Z,30.80
2022-12-25T10:07:23.423Z,30.60
2022-12-25T10:10:00.569Z,24.08
2022-12-25T10:12:44.286Z,28.33
2022-12-25T10:15:29.075Z,25.35
2022-12-25T10:18:15.053Z,25.30
2022-12-25T10:20:49.683Z,23.83
2022-12-25T10:23:23.184Z,28.80
2022-12-25T10:26:09.697Z,21.95
2022-12-25T10:28:46.832Z,24.58
2022-12-25T10:31:22.486Z,25.53
2022-12-25T10:33:54.298Z,26.00
2022-12-25T10:36:24.331Z,23.27
2022-12-25T10:38:52.888Z,24.67
2022-12-25T10:41:36.371Z,25.52
2022-12-25T10:44:14.476Z,26.43
2022-12-25T10:46:50.159Z,26.52
2022-12-25T10:49:19.570Z,32.85
2022-12-25T10:51:47.771Z,26.98
2022-12-25T10:54:22.923Z,29.27
2022-12-25T10:56:55.071Z,27.50
2022-12-25T10:59:23.150Z,26.45
2022-12-25T11:01:55.528Z,28.73
2022-12-25T11:04:29.514Z,31.25
2022-12-25T11:06:59.561Z,28.40
2022-12-25T11:09:27.715Z,25.87
2022-12-25T11:11:55.750Z,26.27
2022-12-25T11:14:24.230Z,23.77
2022-12-25T11:16:53.678Z,24.05
2022-12-25T11:19:28.131Z,23.48
2022-12-25T11:21:57.891Z,22.97
2022-12-25T11:24:28.879Z,22.15
2022-12-25T11:26:58.662Z,21.23
2022-12-25T11:29:35.035Z,21.58
2022-12-25T11:32:06.935Z,24.80
2022-12-25T11:34:38.690Z,25.63
2022-12-25T11:37:12.348Z,24.27
2022-12-25T11:39:42.207Z,18.83
2022-12-25T11:42:14.509Z,20.42
2022-12-25T11:44:48.316Z,21.83
2022-12-25T11:47:22.844Z,23.67
2022-12-25T11:50:00.343Z,21.83
2022-12-25T11:52:33.000Z,20.88
2022-12-25T11:55:06.382Z,20.67
2022-12-25T11:57:36.832Z,22.25
2022-12-25T12:00:10.241Z,20.87
2022-12-25T12:02:45.112Z,25.38
2022-12-25T12:05:18.809Z,22.10
2022-12-25T12:08:00.029Z,22.25
2022-12-25T12:10:35.632Z,22.23
2022-12-25T12:13:19.283Z,22.80
2022-12-25T12:15:48.805Z,21.33
2022-12-25T12:18:23.424Z,21.60
2022-12-25T12:21:06.696Z,24.85
2022-12-25T12:23:37.844Z,22.90
2022-12-25T12:26:06.253Z,24.90
2022-12-25T12:28:44.691Z,24.05
2022-12-25T12:31:13.150Z,23.92
2022-12-25T12:33:44.958Z,23.20
2022-12-25T12:36:15.284Z,22.30
2022-12-25T12:38:45.172Z,25.10
2022-12-25T12:41:15.300Z,23.20
2022-12-25T12:43:46.393Z,25.65
2022-12-25T12:46:26.220Z,23.50
2022-12-25T12:49:11.793Z,24.77
2022-12-25T12:51:39.698Z,23.10
2022-12-25T12:54:20.872Z,26.80
2022-12-25T12:56:59.955Z,27.25
2022-12-25T12:59:34.111Z,21.80
2022-12-25T13:02:14.785Z,27.25
2022-12-25T13:05:00.506Z,26.90
2022-12-25T13:07:45.622Z,29.50
2022-12-25T13:10:28.864Z,26.48
2022-12-25T13:13:00.504Z,23.73
2022-12-25T13:15:31.253Z,28.33
2022-12-25T13:18:03.798Z,25.30
2022-12-25T13:20:41.541Z,25.00
2022-12-25T13:23:27.046Z,25.13
2022-12-25T13:25:56.715Z,28.92
2022-12-25T13:28:29.688Z,26.17
2022-12-25T13:31:06.610Z,30.67
2022-12-25T13:33:35.992Z,28.83
2022-12-25T13:36:05.848Z,28.75
2022-12-25T13:38:33.764Z,27.33
2022-12-25T13:41:19.034Z,29.25
2022-12-25T13:43:49.282Z,33.33
2022-12-25T13:46:17.414Z,30.30
2022-12-25T13:48:45.407Z,30.58
2022-12-25T13:51:17.755Z,30.70
2022-12-25T13:53:45.758Z,31.17
2022-12-25T13:56:16.054Z,26.33
2022-12-25T13:58:44.368Z,32.80
2022-12-25T14:01:18.536Z,32.17
2022-12-25T14:03:48.557Z,32.40
2022-12-25T14:06:21.828Z,32.63
2022-12-25T14:08:50.819Z,29.80
2022-12-25T14:11:22.226Z,30.75
2022-12-25T14:13:53.910Z,32.53
2022-12-25T14:16:22.561Z,29.38
2022-12-25T14:18:56.077Z,29.50
2022-12-25T14:21:31.647Z,30.60
2022-12-25T14:24:00.111Z,29.83
2022-12-25T14:26:31.239Z,31.25
2022-12-25T14:29:12.660Z,34.10
2022-12-25T14:31:43.659Z,32.83
2022-12-25T14:34:17.007Z,31.60
2022-12-25T14:36:47.105Z,34.90
2022-12-25T14:39:30.888Z,30.63
2022-12-25T14:41:58.946Z,30.98
2022-12-25T14:44:32.550Z,30.55
2022-12-25T14:47:16.569Z,33.03
2022-12-25T14:49:45.181Z,29.25
2022-12-25T14:52:19.150Z,32.17
2022-12-25T14:54:48.966Z,32.25
2022-12-25T14:57:20.745Z,33.92
2022-12-25T14:59:56.689Z,29.60
2022-12-25T15:02:24.969Z,29.10
2022-12-25T15:04:53.493Z,32.80
2022-12-25T15:07:29.401Z,31.67
2022-12-25T15:10:27.303Z,32.15
2022-12-25T15:12:45.211Z,29.00
2022-12-25T15:15:13.003Z,34.40
2022-12-25T15:17:42.668Z,38.50
2022-12-25T15:20:13.204Z,35.30
2022-12-25T15:23:10.295Z,34.83
2022-12-25T15:25:31.106Z,33.80
2022-12-25T15:28:00.215Z,32.63
2022-12-25T15:30:28.411Z,36.00
2022-12-25T15:32:59.059Z,34.70
2022-12-25T15:35:27.062Z,37.60
2022-12-25T15:37:56.400Z,36.23
2022-12-25T15:40:26.569Z,35.00
2022-12-25T15:42:56.648Z,34.40
2022-12-25T15:45:27.256Z,34.17
2022-12-25T15:47:55.162Z,35.00
2022-12-25T15:50:23.269Z,33.57
2022-12-25T15:52:51.303Z,37.10
2022-12-25T15:55:20.653Z,34.80
2022-12-25T15:57:49.003Z,33.00
2022-12-25T16:00:19.971Z,32.80
2022-12-25T16:02:50.704Z,38.20
2022-12-25T16:05:18.812Z,31.95
2022-12-25T16:07:46.808Z,35.03
2022-12-25T16:10:17.108Z,32.53
2022-12-25T16:12:46.975Z,33.33
2022-12-25T16:15:16.162Z,30.93
2022-12-25T16:17:44.340Z,33.33
2022-12-25T16:20:12.772Z,38.42
2022-12-25T16:22:40.796Z,35.50
2022-12-25T16:25:14.643Z,36.22
2022-12-25T16:27:42.853Z,31.67
2022-12-25T16:30:15.342Z,34.05
2022-12-25T16:32:44.222Z,32.35
2022-12-25T16:35:12.784Z,35.20
2022-12-25T16:37:41.129Z,34.88
2022-12-25T16:40:10.582Z,33.67
2022-12-25T16:42:39.257Z,34.97
2022-12-25T16:45:08.169Z,32.95
2022-12-25T16:47:37.536Z,32.08
2022-12-25T16:50:07.060Z,32.97
2022-12-25T16:52:35.802Z,32.60
2022-12-25T16:55:04.572Z,30.95
2022-12-25T16:57:32.691Z,32.50
2022-12-25T17:00:00.946Z,30.15
2022-12-25T17:02:29.317Z,32.63
2022-12-25T17:05:00.385Z,29.13
2022-12-25T17:07:28.258Z,30.70
2022-12-25T17:09:57.188Z,31.15
2022-12-25T17:12:25.291Z,36.20
2022-12-25T17:14:53.428Z,40.17
2022-12-25T17:17:21.359Z,36.63
2022-12-25T17:19:49.289Z,35.08
2022-12-25T17:22:18.619Z,38.35
2022-12-25T17:24:46.453Z,37.17
2022-12-25T17:27:14.603Z,34.95
2022-12-25T17:29:43.825Z,42.57
2022-12-25T17:32:12.602Z,37.75
2022-12-25T17:34:40.466Z,41.25
2022-12-25T17:37:08.343Z,43.78
2022-12-25T17:39:38.567Z,48.97
2022-12-25T17:42:06.613Z,42.63
2022-12-25T17:44:34.618Z,43.65
2022-12-25T17:47:02.657Z,44.80
2022-12-25T17:49:30.543Z,48.58
2022-12-25T17:51:58.423Z,45.00
2022-12-25T17:54:26.197Z,42.83
2022-12-25T17:56:55.348Z,42.72
2022-12-25T17:59:28.432Z,41.92
2022-12-25T18:01:56.585Z,40.60
2022-12-25T18:04:25.046Z,48.83
2022-12-25T18:06:53.413Z,42.37
2022-12-25T18:09:21.297Z,48.10
2022-12-25T18:11:49.271Z,46.50
2022-12-25T18:14:18.797Z,48.13
2022-12-25T18:16:47.038Z,51.35
2022-12-25T18:19:17.720Z,50.80
2022-12-25T18:21:45.712Z,57.22
2022-12-25T18:24:13.785Z,54.10
2022-12-25T18:26:41.618Z,61.33
2022-12-25T18:29:09.506Z,54.53
2022-12-25T18:31:38.986Z,55.03
2022-12-25T18:34:06.935Z,58.65
2022-12-25T18:36:35.000Z,63.20
2022-12-25T18:39:02.973Z,59.55
2022-12-25T18:41:31.050Z,59.60
2022-12-25T18:44:00.996Z,57.53
2022-12-25T18:46:29.359Z,57.17
2022-12-25T18:48:58.874Z,56.85
2022-12-25T18:51:33.137Z,70.05
2022-12-25T18:54:04.987Z,63.03
2022-12-25T18:56:33.424Z,63.87
2022-12-25T18:59:01.483Z,70.18
2022-12-25T19:01:29.533Z,68.95
2022-12-25T19:04:04.333Z,72.35
2022-12-25T19:06:33.809Z,79.53
2022-12-25T19:09:09.327Z,74.97
2022-12-25T19:11:45.586Z,77.78
2022-12-25T19:14:14.813Z,90.20
2022-12-25T19:16:42.654Z,67.90
2022-12-25T19:19:12.245Z,70.38
2022-12-25T19:21:42.885Z,74.20
2022-12-25T19:24:10.844Z,64.78
2022-12-25T19:26:38.811Z,67.32
2022-12-25T19:29:06.702Z,60.38
2022-12-25T19:31:34.736Z,66.47
2022-12-25T19:34:02.773Z,67.27
2022-12-25T19:36:32.516Z,66.55
2022-12-25T19:39:00.385Z,66.45
2022-12-25T19:41:28.242Z,66.57
2022-12-25T19:43:56.258Z,63.22
2022-12-25T19:46:26.658Z,59.77
2022-12-25T19:48:56.133Z,62.97
2022-12-25T19:51:26.684Z,58.35
2022-12-25T19:53:57.170Z,63.17
2022-12-25T19:56:25.482Z,72.00
2022-12-25T19:58:53.542Z,75.10
2022-12-25T20:01:23.724Z,68.00
2022-12-25T20:03:51.766Z,59.33
2022-12-25T20:06:23.283Z,61.45
2022-12-25T20:08:53.621Z,59.00
2022-12-25T20:11:24.104Z,66.10
2022-12-25T20:13:52.300Z,65.70
2022-12-25T20:16:20.543Z,68.80
2022-12-25T20:18:48.555Z,74.93
2022-12-25T20:21:21.119Z,61.17
2022-12-25T20:23:51.693Z,71.57
2022-12-25T20:26:21.711Z,78.82
2022-12-25T20:28:51.529Z,58.72
2022-12-25T20:31:23.126Z,58.70
2022-12-25T20:33:51.403Z,62.72
2022-12-25T20:36:19.738Z,65.57
2022-12-25T20:38:47.678Z,81.40
2022-12-25T20:41:26.912Z,71.15
2022-12-25T20:43:57.893Z,71.13
2022-12-25T20:46:26.977Z,75.97
2022-12-25T20:48:55.058Z,122.83
2022-12-25T20:51:24.668Z,109.60
2022-12-25T20:53:53.083Z,103.57
2022-12-25T20:56:24.092Z,86.20
2022-12-25T20:58:54.984Z,73.20
2022-12-25T21:01:24.727Z,68.87
2022-12-25T21:03:52.984Z,67.65
2022-12-25T21:06:21.610Z,66.50
2022-12-25T21:08:49.679Z,60.75
2022-12-25T21:11:18.233Z,64.00
2022-12-25T21:13:47.027Z,66.77
2022-12-25T21:16:18.362Z,64.82
2022-12-25T21:18:48.387Z,58.95
2022-12-25T21:21:16.795Z,59.80
2022-12-25T21:23:45.646Z,73.80
2022-12-25T21:26:16.738Z,66.87
2022-12-25T21:28:44.813Z,60.00
2022-12-25T21:31:13.019Z,62.90
2022-12-25T21:33:51.984Z,60.85
2022-12-25T21:36:24.064Z,55.75
2022-12-25T21:38:57.570Z,58.63
2022-12-25T21:41:27.161Z,66.32
2022-12-25T21:43:55.434Z,61.58
2022-12-25T21:46:23.515Z,58.15
2022-12-25T21:48:51.679Z,55.38
2022-12-25T21:51:42.083Z,51.23
2022-12-25T21:54:10.893Z,55.17
2022-12-25T21:56:44.515Z,56.60
2022-12-25T21:59:14.949Z,53.88
2022-12-25T22:01:43.508Z,53.20
2022-12-25T22:04:12.796Z,47.77
2022-12-25T22:07:00.462Z,46.63
2022-12-25T22:09:28.621Z,43.58
2022-12-25T22:12:15.992Z,44.13
2022-12-25T22:14:56.842Z,39.97
2022-12-25T22:17:44.862Z,41.93
2022-12-25T22:20:15.620Z,44.83
2022-12-25T22:22:45.354Z,46.45
2022-12-25T22:25:14.352Z,49.72
2022-12-25T22:27:47.829Z,47.10
2022-12-25T22:30:17.608Z,52.50
2022-12-25T22:32:46.308Z,52.92
2022-12-25T22:35:15.103Z,53.63
2022-12-25T22:37:44.799Z,48.63
2022-12-25T22:40:15.016Z,51.55
2022-12-25T22:42:43.362Z,50.50
2022-12-25T22:45:12.570Z,48.13
2022-12-25T22:47:40.715Z,43.55
2022-12-25T22:50:09.767Z,49.47
2022-12-25T22:52:39.397Z,47.33
2022-12-25T22:55:10.223Z,46.33
2022-12-25T22:57:38.113Z,48.83
2022-12-25T23:00:08.925Z,47.60
2022-12-25T23:02:37.009Z,47.80
2022-12-25T23:05:05.630Z,48.28
2022-12-25T23:07:33.401Z,44.10
2022-12-25T23:10:01.369Z,40.50
2022-12-25T23:12:48.212Z,45.03
2022-12-25T23:15:16.128Z,40.60
2022-12-25T23:18:01.518Z,41.50
2022-12-25T23:20:46.916Z,41.93
2022-12-25T23:23:33.949Z,41.58
2022-12-25T23:26:11.396Z,36.08
2022-12-25T23:29:00.868Z,36.50
2022-12-25T23:31:34.371Z,37.33
2022-12-25T23:34:03.211Z,32.63
2022-12-25T23:36:30.998Z,34.67
2022-12-25T23:39:04.784Z,29.23
2022-12-25T23:41:36.791Z,29.48
2022-12-25T23:44:06.193Z,31.27
2022-12-25T23:46:34.162Z,33.13
2022-12-25T23:49:01.973Z,31.13
2022-12-25T23:51:29.902Z,29.58
2022-12-25T23:53:57.881Z,26.77
2022-12-25T23:56:25.829Z,35.47
2022-12-25T23:58:53.741Z,30.93
